createdAt,value
2022-12-06T00:02:02.651Z,4.6
2022-12-06T00:04:06.498Z,4.2
2022-12-06T00:06:10.274Z,4.6
2022-12-06T00:08:17.081Z,4.2
2022-12-06T00:10:20.868Z,3.3
2022-12-06T00:12:24.647Z,3.7
2022-12-06T00:14:28.465Z,3
2022-12-06T00:16:32.339Z,4
2022-12-06T00:18:36.021Z,3.3
2022-12-06T00:20:39.809Z,3.9
2022-12-06T00:22:46.434Z,4.3
2022-12-06T00:24:50.236Z,4.2
2022-12-06T00:26:54.018Z,3.9
2022-12-06T00:39:39.579Z,4.4
2022-12-06T00:43:47.259Z,4.1
2022-12-06T00:45:51.195Z,4
2022-12-06T00:47:54.919Z,3.5
2022-12-06T00:50:01.966Z,4
2022-12-06T00:52:05.389Z,4.7
2022-12-06T00:54:09.169Z,3.9
2022-12-06T00:56:13.005Z,4.3
2022-12-06T00:58:16.864Z,4.6
2022-12-06T01:00:20.743Z,3.5
2022-12-06T01:02:24.619Z,3.6
2022-12-06T01:04:31.237Z,3.1
2022-12-06T01:06:35.092Z,3.3
2022-12-06T01:08:38.975Z,4.4
2022-12-06T01:10:42.882Z,3.7
2022-12-06T01:12:46.679Z,4.4
2022-12-06T01:14:50.440Z,5.2
2022-12-06T01:16:54.407Z,4.4
2022-12-06T01:19:00.922Z,4.6
2022-12-06T01:21:04.807Z,4.4
2022-12-06T01:23:08.581Z,4.8
2022-12-06T01:26:15.660Z,4.4
2022-12-06T01:28:19.427Z,3.8
2022-12-06T01:30:23.229Z,4.2
2022-12-06T01:32:29.833Z,3.9
2022-12-06T01:34:33.718Z,4.7
2022-12-06T01:36:37.493Z,4.2
2022-12-06T01:40:45.267Z,4.4
2022-12-06T01:42:49.086Z,5.2
2022-12-06T01:44:52.962Z,4.5
2022-12-06T01:46:59.659Z,5.5
2022-12-06T01:49:03.558Z,4.7
2022-12-06T01:51:07.550Z,4.2
2022-12-06T01:53:11.247Z,4.4
2022-12-06T01:55:15.000Z,4.3
2022-12-06T01:57:18.808Z,5.9
2022-12-06T01:59:22.702Z,4.8
2022-12-06T02:01:29.490Z,5.1
2022-12-06T02:03:33.321Z,4.4
2022-12-06T02:05:40.661Z,4.1
2022-12-06T02:07:41.038Z,4.6
2022-12-06T02:09:44.783Z,3.7
2022-12-06T02:11:48.534Z,5.6
2022-12-06T02:13:52.345Z,4.9
2022-12-06T02:15:59.027Z,6.6
2022-12-06T02:20:06.601Z,5.3
2022-12-06T02:21:09.909Z,4.9
2022-12-06T02:23:13.809Z,4.7
2022-12-06T02:25:17.594Z,5.5
2022-12-06T02:27:21.397Z,4.7
2022-12-06T02:29:28.087Z,6.6
2022-12-06T02:31:31.952Z,4.1
2022-12-06T02:33:35.674Z,5
2022-12-06T02:35:39.443Z,4.6
2022-12-06T02:37:43.253Z,6.2
2022-12-06T02:39:47.028Z,4.9
2022-12-06T02:41:50.941Z,5.5
2022-12-06T02:43:57.637Z,5.4
2022-12-06T02:46:01.589Z,3.8
2022-12-06T02:48:05.376Z,3.1
2022-12-06T02:50:09.196Z,5
2022-12-06T02:52:12.977Z,4.1
2022-12-06T02:54:16.734Z,3.2
2022-12-06T02:56:20.512Z,4
2022-12-06T02:58:27.117Z,3.5
2022-12-06T03:04:38.565Z,4.6
2022-12-06T03:08:46.294Z,4
2022-12-06T03:12:56.624Z,4.1
2022-12-06T03:15:00.505Z,3.7
2022-12-06T03:20:12.880Z,4.4
2022-12-06T03:22:16.734Z,5.4
2022-12-06T03:26:27.120Z,4.9
2022-12-06T03:28:30.903Z,5.4
2022-12-06T03:30:34.694Z,4
2022-12-06T03:32:38.490Z,4.5
2022-12-06T03:34:42.272Z,3.5
2022-12-06T03:38:50.069Z,2.9
2022-12-06T03:40:56.686Z,5.4
2022-12-06T03:43:00.456Z,3.8
2022-12-06T03:45:04.306Z,3.2
2022-12-06T03:47:08.118Z,3.5
2022-12-06T03:49:11.918Z,4.3
2022-12-06T03:55:26.242Z,4.9
2022-12-06T04:01:37.733Z,2.8
2022-12-06T04:07:49.079Z,2.6
2022-12-06T04:09:55.683Z,3
2022-12-06T04:11:59.556Z,2.8
2022-12-06T04:14:03.432Z,3.2
2022-12-06T04:16:27.492Z,3.7
2022-12-06T04:18:31.297Z,2.6
2022-12-06T04:20:35.171Z,2.8
2022-12-06T04:22:41.863Z,3.2
2022-12-06T04:24:45.600Z,2.2
2022-12-06T04:26:49.378Z,2.8
2022-12-06T04:28:53.233Z,2.8
2022-12-06T04:30:57.062Z,2.9
2022-12-06T04:33:00.751Z,3.2
2022-12-06T04:35:04.569Z,1.8
2022-12-06T04:37:11.121Z,2.6
2022-12-06T04:39:19.241Z,2.8
2022-12-06T04:41:18.679Z,2.1
2022-12-06T04:43:22.433Z,2.9
2022-12-06T04:45:26.207Z,2.6
2022-12-06T04:47:30.001Z,2.3
2022-12-06T04:49:33.861Z,2.4
2022-12-06T04:53:44.318Z,4.2
2022-12-06T04:55:48.191Z,2.5
2022-12-06T04:57:51.946Z,2.9
2022-12-06T04:59:55.820Z,2.8
2022-12-06T05:01:59.591Z,2.6
2022-12-06T05:04:03.562Z,2.7
2022-12-06T05:06:10.148Z,3.3
2022-12-06T05:08:14.008Z,3.2
2022-12-06T05:10:17.700Z,3.3
2022-12-06T05:11:21.093Z,4
2022-12-06T05:13:24.974Z,2.5
2022-12-06T05:15:29.435Z,3.5
2022-12-06T05:17:32.588Z,3.4
2022-12-06T05:19:39.173Z,2.8
2022-12-06T05:23:46.678Z,3.3
2022-12-06T05:29:58.444Z,2.2
2022-12-06T05:32:01.921Z,2.2
2022-12-06T05:34:08.548Z,2.1
2022-12-06T05:36:12.470Z,2.2
2022-12-06T05:38:16.274Z,3.5
2022-12-06T05:40:20.030Z,2.1
2022-12-06T05:42:23.878Z,2.3
2022-12-06T05:44:27.822Z,2.8
2022-12-06T05:46:31.768Z,2.4
2022-12-06T05:48:38.423Z,2.6
2022-12-06T05:50:42.288Z,2.5
2022-12-06T05:52:46.044Z,2.5
2022-12-06T05:54:49.804Z,2.7
2022-12-06T05:56:53.717Z,2
2022-12-06T05:58:57.596Z,2.4
2022-12-06T06:01:01.318Z,2.5
2022-12-06T06:03:08.338Z,2.7
2022-12-06T06:05:11.938Z,2.6
2022-12-06T06:07:15.682Z,2.8
2022-12-06T06:12:26.703Z,2.8
2022-12-06T06:14:30.609Z,1.8
2022-12-06T06:16:37.473Z,2.8
2022-12-06T06:18:41.250Z,2.2
2022-12-06T06:20:45.018Z,2.1
2022-12-06T06:22:48.885Z,2.2
2022-12-06T06:24:52.764Z,2.5
2022-12-06T06:26:56.644Z,3.3
2022-12-06T06:29:00.519Z,2.6
2022-12-06T06:33:10.874Z,2.4
2022-12-06T06:35:14.640Z,2.3
2022-12-06T06:37:18.434Z,2.4
2022-12-06T06:39:22.264Z,2.5
2022-12-06T06:43:29.889Z,2.6
2022-12-06T06:45:36.687Z,2.7
2022-12-06T06:47:40.420Z,3.1
2022-12-06T06:49:44.191Z,2.6
2022-12-06T06:51:48.056Z,2.2
2022-12-06T06:53:51.926Z,2.8
2022-12-06T06:55:55.822Z,2.7
2022-12-06T06:57:59.553Z,2.9
2022-12-06T07:00:06.230Z,3.2
2022-12-06T07:02:10.121Z,2
2022-12-06T07:04:13.872Z,2.7
2022-12-06T07:05:17.159Z,1.7
2022-12-06T07:07:21.455Z,3.2
2022-12-06T07:09:24.752Z,2.1
2022-12-06T07:11:28.570Z,2.6
2022-12-06T07:13:35.209Z,4.2
2022-12-06T07:15:38.982Z,2.9
2022-12-06T07:17:42.866Z,2.9
2022-12-06T07:23:54.373Z,1.9
2022-12-06T07:25:58.232Z,2.7
2022-12-06T07:30:08.685Z,2.9
2022-12-06T07:32:12.547Z,2.1
2022-12-06T07:34:16.454Z,2.7
2022-12-06T07:36:20.218Z,2.9
2022-12-06T07:38:24.050Z,2.8
2022-12-06T07:40:56.061Z,2.3
2022-12-06T07:44:38.173Z,3
2022-12-06T07:50:49.616Z,2.3
2022-12-06T07:52:53.373Z,2.5
2022-12-06T07:54:57.161Z,2
2022-12-06T07:57:03.790Z,2.3
2022-12-06T07:59:07.665Z,1.9
2022-12-06T08:01:11.492Z,1.8
2022-12-06T08:03:41.241Z,1.7
2022-12-06T08:05:44.999Z,1.9
2022-12-06T08:07:48.934Z,3.4
2022-12-06T08:09:55.584Z,2.6
2022-12-06T08:11:59.328Z,2.4
2022-12-06T08:14:03.077Z,2.7
2022-12-06T08:16:06.970Z,2.3
2022-12-06T08:18:10.772Z,1.8
2022-12-06T08:20:14.480Z,2.7
2022-12-06T08:22:18.360Z,1.7
2022-12-06T08:24:25.093Z,2.7
2022-12-06T08:26:28.942Z,2.2
2022-12-06T08:30:36.687Z,2.5
2022-12-06T08:32:40.433Z,2.2
2022-12-06T08:34:44.250Z,2.7
2022-12-06T08:36:47.998Z,2.9
2022-12-06T08:38:54.738Z,2.5
2022-12-06T08:45:06.013Z,2.4
2022-12-06T08:47:09.824Z,1.8
2022-12-06T08:53:23.893Z,2.6
2022-12-06T08:57:31.490Z,2.5
2022-12-06T08:58:34.850Z,2.2
2022-12-06T09:00:38.624Z,2.8
2022-12-06T09:02:42.376Z,2.4
2022-12-06T09:04:46.252Z,2.5
2022-12-06T09:06:52.703Z,2.9
2022-12-06T09:08:56.465Z,4
2022-12-06T09:11:00.256Z,2.9
2022-12-06T09:15:07.815Z,2.1
2022-12-06T09:17:13.210Z,3
2022-12-06T09:21:23.785Z,3.7
2022-12-06T09:23:27.584Z,2.9
2022-12-06T09:25:31.378Z,2.6
2022-12-06T09:27:35.316Z,3.2
2022-12-06T09:29:40.743Z,2.2
2022-12-06T09:33:46.756Z,2.2
2022-12-06T09:35:53.490Z,3.5
2022-12-06T09:37:57.426Z,1.9
2022-12-06T09:40:01.507Z,2.3
2022-12-06T09:42:05.054Z,2.6
2022-12-06T09:44:08.872Z,2.3
2022-12-06T09:46:12.783Z,3.4
2022-12-06T09:50:23.339Z,2.2
2022-12-06T09:54:31.084Z,1.9
2022-12-06T09:55:34.405Z,2.1
2022-12-06T09:57:38.243Z,1.8
2022-12-06T10:03:52.612Z,2.3
2022-12-06T10:05:56.457Z,2
2022-12-06T10:08:00.468Z,1.7
2022-12-06T10:10:04.193Z,1.8
2022-12-06T10:14:11.881Z,1.9
2022-12-06T10:16:15.892Z,1.4
2022-12-06T10:18:22.412Z,1.6
2022-12-06T10:20:26.278Z,1.7
2022-12-06T10:22:30.176Z,3
2022-12-06T10:26:37.899Z,1.6
2022-12-06T10:28:41.751Z,1.2
2022-12-06T10:30:45.615Z,1.2
2022-12-06T10:32:52.299Z,0.9
2022-12-06T10:37:00.085Z,0.8
2022-12-06T10:39:03.922Z,1.7
2022-12-06T10:45:17.433Z,1.6
2022-12-06T10:47:22.237Z,0.6
2022-12-06T10:49:26.062Z,1.1
2022-12-06T10:51:29.943Z,1.1
2022-12-06T10:52:33.255Z,0.8
2022-12-06T10:54:37.088Z,0.8
2022-12-06T10:56:40.970Z,0.6
2022-12-06T10:58:44.857Z,1.1
2022-12-06T11:00:51.611Z,1.2
2022-12-06T11:02:55.379Z,2.3
2022-12-06T11:04:59.341Z,1.8
2022-12-06T11:07:03.192Z,1.4
2022-12-06T11:09:07.024Z,0.8
2022-12-06T11:11:10.838Z,1.5
2022-12-06T11:13:14.688Z,1.4
2022-12-06T11:15:21.371Z,1.6
2022-12-06T11:17:25.196Z,1.3
2022-12-06T11:19:29.040Z,1.3
2022-12-06T11:21:32.873Z,0.8
2022-12-06T11:25:40.557Z,1.4
2022-12-06T11:29:51.069Z,1.7
2022-12-06T11:36:02.576Z,1.3
2022-12-06T11:38:06.414Z,1.7
2022-12-06T11:40:10.245Z,1.6
2022-12-06T11:42:14.051Z,0.8
2022-12-06T11:44:20.699Z,1.4
2022-12-06T11:46:24.616Z,1.3
2022-12-06T11:48:28.362Z,0.9
2022-12-06T11:53:01.820Z,1.2
2022-12-06T11:55:05.637Z,0.9
2022-12-06T12:01:19.928Z,1.6
2022-12-06T12:03:23.818Z,1
2022-12-06T12:07:31.466Z,2.5
2022-12-06T12:09:35.320Z,2.2
2022-12-06T12:15:49.722Z,1.4
2022-12-06T12:19:57.389Z,1.3
2022-12-06T12:22:01.243Z,1.4
2022-12-06T12:24:05.040Z,1.7
2022-12-06T12:26:11.708Z,1.4
2022-12-06T12:28:15.533Z,1.4
2022-12-06T12:32:23.220Z,0.7
2022-12-06T12:34:27.148Z,0.8
2022-12-06T12:36:31.009Z,1.2
2022-12-06T12:38:34.966Z,1.8
2022-12-06T12:40:41.622Z,1.6
2022-12-06T12:42:45.480Z,1.8
2022-12-06T12:44:49.331Z,1.7
2022-12-06T12:45:52.654Z,1
2022-12-06T12:47:56.484Z,1.2
2022-12-06T12:50:00.312Z,2
2022-12-06T12:52:04.143Z,1.5
2022-12-06T12:54:10.802Z,2.4
2022-12-06T13:00:22.303Z,1.8
2022-12-06T13:02:26.222Z,2.3
2022-12-06T13:04:30.016Z,2.6
2022-12-06T13:06:33.826Z,1.9
2022-12-06T13:08:40.467Z,1.5
2022-12-06T13:10:44.308Z,1.8
2022-12-06T13:12:48.172Z,1.8
2022-12-06T13:14:52.009Z,1.6
2022-12-06T13:16:55.886Z,1.9
2022-12-06T13:18:59.655Z,1.9
2022-12-06T13:21:03.489Z,1.9
2022-12-06T13:23:10.142Z,1.4
2022-12-06T13:25:13.986Z,1.7
2022-12-06T13:27:17.854Z,1.3
2022-12-06T13:29:21.634Z,2.4
2022-12-06T13:31:25.472Z,2
2022-12-06T13:33:29.375Z,1.9
2022-12-06T13:35:33.167Z,2.2
2022-12-06T13:37:39.912Z,1.6
2022-12-06T13:39:43.749Z,1.8
2022-12-06T13:44:54.840Z,2.5
2022-12-06T13:49:02.489Z,1.9
2022-12-06T13:51:09.139Z,2.3
2022-12-06T13:53:12.977Z,2.2
2022-12-06T13:55:17.609Z,1.5
2022-12-06T13:57:20.840Z,4.6
2022-12-06T13:59:24.447Z,2.4
2022-12-06T14:01:28.339Z,2.1
2022-12-06T14:03:32.224Z,2
2022-12-06T14:05:38.876Z,2
2022-12-06T14:07:42.849Z,1.9
2022-12-06T14:09:46.626Z,2.6
2022-12-06T14:11:50.448Z,2.2
2022-12-06T14:13:54.268Z,1.4
2022-12-06T14:15:58.091Z,1.8
2022-12-06T14:18:05.557Z,2.9
2022-12-06T14:20:08.540Z,2.2
2022-12-06T14:22:12.376Z,2.3
2022-12-06T14:24:16.213Z,1.6
2022-12-06T14:26:20.019Z,2.3
2022-12-06T14:28:23.850Z,2.8
2022-12-06T14:30:27.669Z,1.9
2022-12-06T14:32:31.511Z,2.1
2022-12-06T14:34:38.271Z,2.5
2022-12-06T14:38:45.997Z,2.9
2022-12-06T14:39:49.404Z,2.2
2022-12-06T14:41:53.342Z,2.1
2022-12-06T14:48:07.629Z,1.6
2022-12-06T14:50:11.461Z,2.5
2022-12-06T14:52:15.264Z,1.7
2022-12-06T14:56:22.906Z,2.1
2022-12-06T15:06:44.896Z,3.2
2022-12-06T15:10:52.626Z,2.5
2022-12-06T15:12:56.459Z,3.2
2022-12-06T15:15:00.356Z,2.4
2022-12-06T15:17:08.437Z,2.1
2022-12-06T15:19:12.264Z,2.4
2022-12-06T15:21:16.049Z,2.5
2022-12-06T15:23:19.845Z,2.3
2022-12-06T15:25:23.634Z,2.6
2022-12-06T15:27:27.450Z,2.8
2022-12-06T15:29:31.269Z,2.2
2022-12-06T15:35:45.564Z,3.2
2022-12-06T15:38:15.275Z,2.8
2022-12-06T15:40:19.072Z,2.6
2022-12-06T15:42:22.969Z,3.8
2022-12-06T15:44:29.570Z,2.7
2022-12-06T15:46:33.397Z,2.7
2022-12-06T15:48:37.283Z,2.8
2022-12-06T15:50:41.079Z,2.7
2022-12-06T15:52:44.969Z,3.1
2022-12-06T15:56:52.791Z,3.6
2022-12-06T15:58:59.488Z,3
2022-12-06T16:01:03.290Z,3.6
2022-12-06T16:07:14.775Z,3
2022-12-06T16:11:22.372Z,3.4
2022-12-06T16:13:29.048Z,5.2
2022-12-06T16:15:32.843Z,3.5
2022-12-06T16:27:58.567Z,3.9
2022-12-06T16:30:02.508Z,4
2022-12-06T16:32:06.455Z,3.6
2022-12-06T16:33:09.655Z,4.4
2022-12-06T16:35:13.454Z,4
2022-12-06T16:37:17.346Z,4.1
2022-12-06T16:39:21.152Z,4.1
2022-12-06T16:41:27.862Z,4.7
2022-12-06T16:43:31.636Z,4.1
2022-12-06T16:45:35.429Z,4.2
2022-12-06T16:47:39.456Z,3.2
2022-12-06T16:49:46.478Z,4.2
2022-12-06T16:51:46.926Z,3.9
2022-12-06T16:53:50.713Z,4.3
2022-12-06T16:55:57.312Z,4.1
2022-12-06T16:58:01.124Z,3.5
2022-12-06T17:00:05.030Z,3.7
2022-12-06T17:02:13.179Z,4.5
2022-12-06T17:04:12.822Z,3.3
2022-12-06T17:06:16.658Z,3.7
2022-12-06T17:08:22.351Z,3.3
2022-12-06T17:12:31.101Z,3.3
2022-12-06T17:22:50.153Z,3.1
2022-12-06T17:24:56.885Z,4.8
2022-12-06T17:27:00.633Z,4.5
2022-12-06T17:29:04.544Z,4.4
2022-12-06T17:30:07.920Z,4.5
2022-12-06T17:32:11.843Z,4.8
2022-12-06T17:34:15.561Z,5
2022-12-06T17:36:24.941Z,4.7
2022-12-06T17:38:26.195Z,5.1
2022-12-06T17:40:30.062Z,4.9
2022-12-06T17:42:33.927Z,5.1
2022-12-06T17:44:37.727Z,5.4
2022-12-06T17:46:41.612Z,4.9
2022-12-06T17:48:45.392Z,5
2022-12-06T17:50:49.131Z,5.7
2022-12-06T17:52:55.837Z,6.3
2022-12-06T17:54:59.986Z,8.3
2022-12-06T17:57:03.475Z,7.8
2022-12-06T17:59:07.240Z,5.8
2022-12-06T18:01:11.173Z,5.9
2022-12-06T18:03:14.943Z,6.2
2022-12-06T18:05:18.641Z,6.6
2022-12-06T18:07:25.332Z,8.1
2022-12-06T18:09:29.113Z,7
2022-12-06T18:11:32.978Z,8.4
2022-12-06T18:13:36.722Z,7.3
2022-12-06T18:15:40.611Z,7.7
2022-12-06T18:17:44.364Z,7
2022-12-06T18:19:48.108Z,8.2
2022-12-06T18:21:54.913Z,12.2
2022-12-06T18:24:20.227Z,8.1
2022-12-06T18:26:02.443Z,8.1
2022-12-06T18:29:09.601Z,10.4
2022-12-06T18:31:13.430Z,12.1
2022-12-06T18:33:20.781Z,10.4
2022-12-06T18:35:23.862Z,10.8
2022-12-06T18:37:27.663Z,12.8
2022-12-06T18:39:31.475Z,11.2
2022-12-06T18:41:35.271Z,11.1
2022-12-06T18:45:42.908Z,11.2
2022-12-06T18:47:46.584Z,10.2
2022-12-06T18:54:00.921Z,11.7
2022-12-06T18:56:04.797Z,13.8
2022-12-06T19:00:12.439Z,14.7
2022-12-06T19:04:23.149Z,12.3
2022-12-06T19:06:26.916Z,13.9
2022-12-06T19:08:30.800Z,11.1
2022-12-06T19:10:34.564Z,10.9
2022-12-06T19:12:38.480Z,11.2
2022-12-06T19:14:42.319Z,9.9
2022-12-06T19:16:46.274Z,10.7
2022-12-06T19:23:00.545Z,14.2
2022-12-06T19:25:30.199Z,12.4
2022-12-06T19:27:33.946Z,13.5
2022-12-06T19:29:37.723Z,12.6
2022-12-06T19:31:44.331Z,13.3
2022-12-06T19:33:48.210Z,11.4
2022-12-06T19:35:52.079Z,13.1
2022-12-06T19:37:55.929Z,11.5
2022-12-06T19:40:00.197Z,13.3
2022-12-06T19:44:07.244Z,10.7
2022-12-06T19:46:13.882Z,13.6
2022-12-06T19:48:17.565Z,12.2
2022-12-06T19:50:21.401Z,13.4
2022-12-06T19:52:29.407Z,11.7
2022-12-06T19:54:28.893Z,10.3
2022-12-06T19:56:32.848Z,11.6
2022-12-06T19:58:36.418Z,11.5
2022-12-06T20:00:43.026Z,11.6
2022-12-06T20:02:46.939Z,11.4
2022-12-06T20:04:50.792Z,11.3
2022-12-06T20:06:54.526Z,8.5
2022-12-06T20:08:58.295Z,10
2022-12-06T20:11:02.092Z,9.2
2022-12-06T20:13:05.836Z,9.9
2022-12-06T20:15:12.446Z,12.4
2022-12-06T20:17:16.297Z,9.4
2022-12-06T20:19:20.073Z,11.7
2022-12-06T20:20:23.346Z,11.9
2022-12-06T20:22:27.250Z,11.1
2022-12-06T20:24:31.016Z,10.9
2022-12-06T20:26:34.887Z,9.7
2022-12-06T20:28:41.578Z,12.7
2022-12-06T20:30:45.413Z,12.7
2022-12-06T20:34:53.097Z,12.9
2022-12-06T20:36:56.842Z,13
2022-12-06T20:39:00.618Z,12.7
2022-12-06T20:41:04.378Z,12.9
2022-12-06T20:43:11.079Z,12.3
2022-12-06T20:45:14.935Z,12.8
2022-12-06T20:47:18.764Z,12.9
2022-12-06T20:49:22.607Z,13.7
2022-12-06T20:51:26.468Z,12.8
2022-12-06T20:53:30.224Z,12.2
2022-12-06T20:55:34.111Z,12.3
2022-12-06T20:57:40.891Z,12.7
2022-12-06T20:59:44.779Z,13.6
2022-12-06T21:01:48.694Z,10.3
2022-12-06T21:03:52.431Z,10.1
2022-12-06T21:05:56.284Z,10.4
2022-12-06T21:08:00.270Z,11.7
2022-12-06T21:10:04.211Z,11.5
2022-12-06T21:14:16.038Z,12.9
2022-12-06T21:16:19.936Z,9.7
2022-12-06T21:17:23.095Z,13.4
2022-12-06T21:19:26.854Z,10.9
2022-12-06T21:21:30.629Z,10.1
2022-12-06T21:23:34.418Z,11.2
2022-12-06T21:25:40.967Z,12.1
2022-12-06T21:27:44.734Z,12.3
2022-12-06T21:29:48.508Z,11.2
2022-12-06T21:31:52.300Z,8.5
2022-12-06T21:33:56.177Z,10
2022-12-06T21:35:59.903Z,14.9
2022-12-06T21:38:03.682Z,10.7
2022-12-06T21:40:10.250Z,12.2
2022-12-06T21:42:14.021Z,11.2
2022-12-06T21:44:17.808Z,12.3
2022-12-06T21:46:21.678Z,12
2022-12-06T21:48:25.337Z,12.8
2022-12-06T21:50:29.128Z,11.2
2022-12-06T21:52:32.905Z,11.5
2022-12-06T21:54:39.461Z,11.5
2022-12-06T21:56:43.311Z,10
2022-12-06T21:58:47.103Z,10.7
2022-12-06T22:00:50.856Z,10.4
2022-12-06T22:02:54.662Z,9.5
2022-12-06T22:04:58.466Z,10.8
2022-12-06T22:07:02.221Z,10.2
2022-12-06T22:09:08.824Z,10.3
2022-12-06T22:11:12.553Z,8.9
2022-12-06T22:14:19.583Z,11.5
2022-12-06T22:16:23.452Z,9.1
2022-12-06T22:18:27.220Z,9.9
2022-12-06T22:20:30.941Z,10.2
2022-12-06T22:22:37.553Z,10.8
2022-12-06T22:24:41.323Z,10
2022-12-06T22:26:45.095Z,10.6
2022-12-06T22:28:48.931Z,9.5
2022-12-06T22:30:52.695Z,10
2022-12-06T22:35:00.275Z,11.3
2022-12-06T22:37:06.834Z,11.4
2022-12-06T22:39:10.605Z,10.6
2022-12-06T22:41:14.431Z,9
2022-12-06T22:43:18.166Z,10.3
2022-12-06T22:45:21.915Z,8.9
2022-12-06T22:47:25.849Z,8
2022-12-06T22:51:35.951Z,9.5
2022-12-06T22:53:39.684Z,10.9
2022-12-06T22:55:43.447Z,7.4
2022-12-06T22:59:50.872Z,7.1
2022-12-06T23:01:54.643Z,6.5
2022-12-06T23:03:58.375Z,6.4
2022-12-06T23:06:04.873Z,5
2022-12-06T23:08:08.652Z,6.8
2022-12-06T23:10:12.412Z,4.1
2022-12-06T23:12:42.056Z,5.4
2022-12-06T23:14:45.888Z,3.4
2022-12-06T23:16:49.660Z,5
2022-12-06T23:18:56.363Z,4.3
2022-12-06T23:21:00.179Z,4.5
2022-12-06T23:23:03.909Z,4
2022-12-06T23:27:11.383Z,3.4
2022-12-06T23:29:15.196Z,3.9
2022-12-06T23:31:18.995Z,3.8
2022-12-06T23:33:25.606Z,3.2
2022-12-06T23:37:33.076Z,3
2022-12-06T23:39:36.809Z,4.8
2022-12-06T23:41:40.535Z,3.3
2022-12-06T23:43:44.398Z,4.2
2022-12-06T23:45:48.208Z,3.3
2022-12-06T23:47:54.795Z,3
2022-12-06T23:49:58.932Z,2.8
2022-12-06T23:52:02.334Z,2.1
2022-12-06T23:54:06.196Z,2.5
2022-12-06T23:56:10.067Z,2.4
2022-12-06T23:58:13.756Z,2.9
